createdAt,value
2022-10-05T00:06:28.345Z,49.16
2022-10-05T00:12:52.577Z,49.41
2022-10-05T00:19:16.980Z,49.31
2022-10-05T00:25:41.308Z,49.17
2022-10-05T00:32:05.655Z,49.29
2022-10-05T00:38:30.143Z,49.53
2022-10-05T00:45:21.697Z,49.41
2022-10-05T00:51:48.746Z,49.45
2022-10-05T00:58:21.901Z,49.57
2022-10-05T01:04:46.642Z,49.49
2022-10-05T01:11:26.168Z,49.76
2022-10-05T01:17:57.014Z,49.63
2022-10-05T01:24:36.589Z,49.66
2022-10-05T01:31:01.102Z,49.49
2022-10-05T01:37:23.687Z,49.73
2022-10-05T01:43:55.513Z,49.77
2022-10-05T01:50:32.429Z,49.78
2022-10-05T01:57:02.943Z,49.86
2022-10-05T02:03:39.331Z,49.72
2022-10-05T02:10:20.861Z,49.97
2022-10-05T02:16:51.090Z,50.02
2022-10-05T02:23:27.535Z,49.95
2022-10-05T02:29:51.746Z,50.03
2022-10-05T02:36:17.229Z,49.96
2022-10-05T02:42:45.219Z,50.08
2022-10-05T02:48:49.176Z,50.09
2022-10-05T02:55:25.441Z,50.10
2022-10-05T03:02:01.906Z,50.09
2022-10-05T03:08:30.392Z,50.16
2022-10-05T03:15:07.081Z,50.15
2022-10-05T03:21:31.419Z,50.08
2022-10-05T03:28:06.835Z,50.09
2022-10-05T03:34:37.086Z,50.08
2022-10-05T03:41:25.876Z,50.37
2022-10-05T03:47:39.037Z,50.24
2022-10-05T03:54:03.334Z,50.32
2022-10-05T04:00:33.173Z,50.31
2022-10-05T04:06:57.597Z,50.49
2022-10-05T04:13:55.970Z,50.29
2022-10-05T04:20:20.745Z,50.37
2022-10-05T04:26:45.598Z,50.42
2022-10-05T04:33:16.211Z,50.46
2022-10-05T04:40:05.331Z,50.73
2022-10-05T04:46:32.567Z,50.52
2022-10-05T04:53:06.034Z,50.15
2022-10-05T04:59:47.553Z,49.60
2022-10-05T05:06:26.989Z,49.03
2022-10-05T05:13:12.533Z,48.69
2022-10-05T05:19:38.173Z,48.32
2022-10-05T05:26:00.838Z,47.77
2022-10-05T05:32:33.087Z,47.25
2022-10-05T05:39:09.533Z,47.02
2022-10-05T05:45:40.084Z,46.76
2022-10-05T05:52:22.497Z,46.95
2022-10-05T05:58:52.469Z,46.63
2022-10-05T06:05:20.415Z,46.42
2022-10-05T06:11:47.492Z,46.09
2022-10-05T06:18:18.981Z,45.83
2022-10-05T06:24:55.069Z,45.65
2022-10-05T06:31:22.265Z,45.64
2022-10-05T06:37:46.764Z,45.97
2022-10-05T06:44:20.087Z,46.06
2022-10-05T06:50:45.049Z,46.27
2022-10-05T06:57:18.486Z,46.38
2022-10-05T07:03:46.072Z,46.63
2022-10-05T07:10:15.330Z,46.80
2022-10-05T07:16:40.172Z,46.78
2022-10-05T07:23:10.538Z,47.14
2022-10-05T07:29:56.605Z,47.20
2022-10-05T07:36:31.603Z,47.14
2022-10-05T07:43:05.150Z,47.01
2022-10-05T07:49:43.505Z,47.35
2022-10-05T07:56:07.880Z,47.33
2022-10-05T08:02:32.475Z,47.40
2022-10-05T08:08:59.642Z,47.50
2022-10-05T08:15:41.021Z,47.44
2022-10-05T08:22:17.488Z,47.69
2022-10-05T08:28:50.913Z,47.73
2022-10-05T08:35:15.227Z,47.59
2022-10-05T08:41:44.164Z,47.86
2022-10-05T08:48:07.774Z,47.92
2022-10-05T08:54:35.961Z,47.93
2022-10-05T09:01:03.748Z,47.97
2022-10-05T09:07:14.101Z,47.99
2022-10-05T09:14:00.554Z,48.07
2022-10-05T09:20:37.045Z,48.09
2022-10-05T09:26:59.459Z,47.88
2022-10-05T09:33:24.147Z,47.63
2022-10-05T09:40:01.611Z,47.09
2022-10-05T09:46:33.722Z,46.63
2022-10-05T09:53:26.866Z,46.40
2022-10-05T10:00:01.036Z,45.91
2022-10-05T10:06:51.296Z,45.78
2022-10-05T10:13:33.927Z,45.56
2022-10-05T10:27:56.027Z,45.42
2022-10-05T10:48:57.675Z,45.28
2022-10-05T10:55:36.925Z,45.23
2022-10-05T11:09:01.311Z,45.40
2022-10-05T11:15:37.612Z,45.44
2022-10-05T11:28:47.180Z,45.35
2022-10-05T11:35:04.091Z,45.49
2022-10-05T11:41:39.709Z,45.35
2022-10-05T11:48:07.973Z,45.64
2022-10-05T11:55:05.852Z,45.44
2022-10-05T12:01:23.325Z,45.63
2022-10-05T12:07:44.631Z,45.68
2022-10-05T12:13:50.428Z,45.41
2022-10-05T12:20:24.614Z,45.43
2022-10-05T12:27:06.637Z,45.54
2022-10-05T12:33:34.931Z,45.26
2022-10-05T12:40:05.061Z,45.23
2022-10-05T12:46:57.756Z,45.45
2022-10-05T12:53:47.377Z,45.86
2022-10-05T13:00:25.367Z,46.36
2022-10-05T13:06:59.918Z,46.86
2022-10-05T13:13:26.745Z,47.20
2022-10-05T13:20:08.646Z,47.30
2022-10-05T13:26:34.058Z,47.34
2022-10-05T13:33:04.488Z,47.38
2022-10-05T13:39:27.878Z,47.26
2022-10-05T13:45:54.155Z,47.26
2022-10-05T13:52:18.176Z,47.22
2022-10-05T13:58:47.494Z,47.25
2022-10-05T14:05:31.049Z,47.35
2022-10-05T14:12:03.066Z,47.43
2022-10-05T14:18:39.177Z,47.46
2022-10-05T14:25:33.125Z,47.58
2022-10-05T14:31:57.474Z,47.55
2022-10-05T14:38:29.540Z,47.58
2022-10-05T14:44:56.549Z,47.64
2022-10-05T14:51:29.194Z,47.99
2022-10-05T14:57:59.391Z,47.82
2022-10-05T15:04:38.450Z,48.06
2022-10-05T15:11:11.856Z,48.08
2022-10-05T15:17:33.098Z,48.18
2022-10-05T15:24:16.434Z,47.98
2022-10-05T15:30:47.295Z,48.00
2022-10-05T15:36:57.591Z,47.97
2022-10-05T15:43:17.295Z,47.40
2022-10-05T15:50:00.644Z,46.60
2022-10-05T15:56:30.843Z,46.12
2022-10-05T16:02:58.904Z,45.98
2022-10-05T16:09:49.970Z,46.09
2022-10-05T16:16:32.314Z,46.47
2022-10-05T16:22:56.711Z,46.64
2022-10-05T16:29:33.661Z,46.75
2022-10-05T16:35:57.906Z,46.94
2022-10-05T16:42:10.222Z,46.93
2022-10-05T16:48:49.203Z,46.78
2022-10-05T16:55:17.260Z,46.82
2022-10-05T17:02:05.497Z,46.83
2022-10-05T17:08:15.174Z,46.93
2022-10-05T17:15:09.456Z,46.82
2022-10-05T17:21:43.602Z,46.99
2022-10-05T17:28:38.438Z,47.11
2022-10-05T17:35:03.836Z,46.89
2022-10-05T17:41:29.627Z,47.03
2022-10-05T17:47:57.100Z,46.84
2022-10-05T17:54:22.265Z,46.77
2022-10-05T18:01:03.423Z,46.73
2022-10-05T18:07:30.714Z,47.04
2022-10-05T18:13:55.961Z,46.92
2022-10-05T18:20:20.325Z,46.93
2022-10-05T18:26:45.980Z,47.03
2022-10-05T18:33:22.477Z,46.87
2022-10-05T18:39:41.904Z,47.04
2022-10-05T18:46:19.652Z,47.01
2022-10-05T18:52:53.230Z,46.96
2022-10-05T18:59:39.014Z,47.10
2022-10-05T19:06:04.432Z,47.07
2022-10-05T19:12:31.797Z,47.04
2022-10-05T19:19:03.515Z,47.29
2022-10-05T19:25:34.038Z,47.36
2022-10-05T19:32:01.294Z,47.27
2022-10-05T19:38:46.481Z,47.37
2022-10-05T19:45:28.605Z,47.29
2022-10-05T19:51:53.007Z,47.57
2022-10-05T19:58:18.254Z,47.46
2022-10-05T20:04:40.047Z,47.39
2022-10-05T20:10:58.021Z,47.52
2022-10-05T20:17:29.459Z,47.47
2022-10-05T20:23:59.792Z,47.78
2022-10-05T20:30:24.069Z,47.98
2022-10-05T20:36:41.019Z,48.20
2022-10-05T20:43:05.260Z,48.38
2022-10-05T20:49:32.277Z,48.74
2022-10-05T20:55:56.652Z,48.72
2022-10-05T21:02:44.401Z,48.88
2022-10-05T21:09:08.730Z,48.96
2022-10-05T21:15:33.010Z,48.86
2022-10-05T21:21:50.718Z,49.06
2022-10-05T21:28:07.932Z,48.86
2022-10-05T21:34:32.166Z,49.01
2022-10-05T21:40:56.545Z,49.17
2022-10-05T21:47:20.744Z,49.00
2022-10-05T21:53:38.685Z,49.11
2022-10-05T22:00:03.024Z,49.10
2022-10-05T22:06:27.545Z,48.93
2022-10-05T22:12:51.850Z,49.06
2022-10-05T22:19:18.895Z,48.83
2022-10-05T22:25:35.929Z,49.02
2022-10-05T22:32:00.170Z,49.12
2022-10-05T22:38:24.442Z,49.22
2022-10-05T22:44:48.773Z,49.09
2022-10-05T22:51:13.190Z,49.41
2022-10-05T22:57:37.414Z,49.32
2022-10-05T23:03:55.709Z,49.13
2022-10-05T23:10:19.973Z,49.40
2022-10-05T23:16:36.803Z,49.25
2022-10-05T23:22:59.677Z,49.37
2022-10-05T23:29:25.136Z,49.23
2022-10-05T23:35:49.435Z,49.39
2022-10-05T23:42:06.348Z,49.38
2022-10-05T23:48:29.887Z,49.69
2022-10-05T23:54:54.393Z,49.49
